Antelope Valley, Nevada Weather observations

Data are for 10 minute period ending at time listed.
 Day   Time   Solar   Ave.   Ave.  Ave.  Vector  Max.   Baro.   Total    
  of    of     Rad.   Air    Rel.  Wind   Wind   Wind  Press.  Precip.   
Year   Day            Temp.  Hum.  Speed  Dir.   Gust                    
2017   (PST)  Kw/m2    F      %     mph   deg.    mph    mb.     in.     
-------------------------------------------------------------------------
 173   13:30   0.91   85.2    12    8.2    42    13.7   853.0    0.00 
 173   13:40   0.89   85.7    12    8.0    52    16.5   852.9    0.00 
 173   13:50   0.88   85.9    12    8.6    38    14.8   852.8    0.00 
 173   14:00   0.86   85.7    12    8.2    58    15.7   852.7    0.00 
 173   14:10   0.84   86.4    12    9.6    43    16.1   852.6    0.00 
 173   14:20   0.82   87.1    12    9.2    41    14.8   852.5    0.00 
 173   14:30   0.80   87.5    12   10.0    42    15.3   852.5    0.00 
 173   14:40   0.78   87.7    12    9.0    53    14.0   852.4    0.00 
 173   14:50   0.76   87.1    12   10.2    55    14.9   852.4    0.00 
 173   15:00   0.74   87.7    12    9.6    53    16.1   852.3    0.00 
 173   15:10   0.71   88.3    12   10.6    37    16.9   852.3    0.00 
 173   15:20   0.69   87.9    12   10.2    40    15.1   852.2    0.00 
 173   15:30   0.66   87.9    12    9.2    40    15.2   852.2    0.00 
 173   15:40   0.63   87.8    12   10.6    50    17.1   852.0    0.00 
 173   15:50   0.60   88.3    12    8.8    20    16.1   852.0    0.00 
 173   16:00   0.58   88.2    12    9.5    43    15.1   852.0    0.00 
 173   16:10   0.55   87.2    12   10.4    48    18.4   851.9    0.00 
 173   16:20   0.52   87.7    13   10.4    42    16.5   851.8    0.00 
 173   16:30   0.49   87.5    12   12.2    24    18.9   851.7    0.00 
 173   16:40   0.46   87.3    12   10.3    40    15.9   851.8    0.00 
 173   16:50   0.43   87.4    12   10.7    35    16.3   851.7    0.00 
 173   17:00   0.40   86.8    12   11.2    34    16.8   851.8    0.00 
 173   17:10   0.37   86.2    12   11.6    25    18.4   851.8    0.00 
 173   17:20   0.33   86.0    13   11.1    31    17.1   851.9    0.00 
 173   17:30   0.30   85.4    13   11.2    35    16.1   852.0    0.00 
 173   17:40   0.27   84.8    13   11.8    28    15.6   852.0    0.00 
 173   17:50   0.24   84.4    13   11.7    23    17.0   852.0    0.00 
 173   18:00   0.21   83.9    13   11.7    28    17.1   852.0    0.00 
 173   18:10   0.18   83.4    13   10.7    25    16.4   852.1    0.00 
 173   18:20   0.16   82.7    13   11.9    21    16.1   852.1    0.00 
 173   18:30   0.13   81.9    13   11.4    24    16.7   852.2    0.00 
 173   18:40   0.10   81.1    13   11.4    24    15.3   852.2    0.00 
 173   18:50   0.08   80.0    14   10.2    23    15.1   852.2    0.00 
 173   19:00   0.06   78.8    14    9.5    23    12.6   852.2    0.00 
 173   19:10   0.03   77.4    15    9.0    19    13.1   852.2    0.00 
 173   19:20   0.01   74.7    17    7.6    16     9.8   852.2    0.00 
 173   19:30   0.01   72.7    19    6.7    16     8.5   852.1    0.00 
 173   19:40   0.00   70.2    20    5.7    12     7.2   852.1    0.00 
 173   19:50   0.00   66.7    25    4.8    58     8.0   852.2    0.00 
 173   20:00   0.00   66.2    26    4.7    60     7.8   852.4    0.00 
 173   20:10   0.00   61.5    35    3.1    39     4.6   852.7    0.00 
 173   20:20   0.00   61.5    34    3.0    56     4.0   852.9    0.00 
 173   20:30   0.00   62.9    28    4.0    59     5.8   853.1    0.00 
 173   20:40   0.00   63.6    27    3.8    50     5.0   853.2    0.00 
 173   20:50   0.00   60.7    35    3.2    42     5.4   853.4    0.00 
 173   21:00   0.00   60.5    34    5.8    80     7.3   853.5    0.00 
 173   21:10   0.00   61.2    30    4.5    71     7.2   853.7    0.00 
 173   21:20   0.00   60.5    34    4.5    60     5.9   853.8    0.00 
 173   21:30   0.00   58.8    33    5.9    87     7.2   853.9    0.00 
 173   21:40   0.00   59.3    33    4.7    71     6.4   853.9    0.00 
 173   21:50   0.00   58.0    36    4.4    70     8.0   854.0    0.00 
 173   22:00   0.00   58.7    32    5.5    72     7.8   854.2    0.00 
 173   22:10   0.00   57.9    35    3.8    50     6.1   854.3    0.00 
 173   22:20   0.00   58.2    33    6.0    74    10.6   854.3    0.00 
 173   22:30   0.00   59.4    32    5.9    74     8.2   854.3    0.00 
 173   22:40   0.00   57.0    36    4.6    67     6.6   854.4    0.00 
 173   22:50   0.00   57.8    30    6.2    86     8.4   854.5    0.00 
 173   23:00   0.00   59.5    29    6.5    83     9.1   854.6    0.00 
 173   23:10   0.00   59.6    27    5.7    86     8.6   854.7    0.00 
 173   23:20   0.00   58.2    29    5.9    83     7.4   854.8    0.00 
 173   23:30   0.00   57.6    31    6.0    61     7.7   854.9    0.00 
 173   23:40   0.00   57.2    32    6.2    72     7.8   854.9    0.00 
 173   23:50   0.00   56.3    30    6.3    85     7.8   854.8    0.00 
 174    0:00   0.00   57.7    26    7.1    87    10.4   854.9    0.00 
 174    0:10   0.00   57.0    27    6.9    84     9.6   854.9    0.00 
 174    0:20   0.00   55.9    28    6.6    81     8.0   855.0    0.00 
 174    0:30   0.00   55.4    31    6.2    76     8.2   855.0    0.00 
 174    0:40   0.00   54.4    30    6.8    84     8.2   855.0    0.00 
 174    0:50   0.00   54.7    29    6.9    84     8.7   855.0    0.00 
 174    1:00   0.00   55.3    28    7.0    88     9.1   855.0    0.00 
 174    1:10   0.00   55.4    28    7.6    88     9.8   855.0    0.00 
 174    1:20   0.00   54.9    28    7.1    90     9.1   855.1    0.00 
 174    1:30   0.00   54.1    30    7.0    87     9.1   855.2    0.00 
 174    1:40   0.00   54.2    30    6.6    88     8.5   855.2    0.00 
 174    1:50   0.00   55.9    29    7.0    79    10.1   855.2    0.00 
 174    2:00   0.00   55.3    31    6.5    83     8.6   855.3    0.00 
 174    2:10   0.00   53.2    35    6.1    79     8.2   855.3    0.00 
 174    2:20   0.00   52.8    33    6.1    88     7.5   855.2    0.00 
 174    2:30   0.00   53.1    33    6.0    91     8.9   855.3    0.00 
 174    2:40   0.00   54.9    31    6.4    87     9.7   855.2    0.00 
 174    2:50   0.00   54.0    33    6.2    87     7.8   855.4    0.00 
 174    3:00   0.00   53.2    33    5.4    88     7.2   855.4    0.00 
 174    3:10   0.00   52.8    36    5.2    83     7.7   855.4    0.00 
 174    3:20   0.00   51.1    39    5.1   100     6.1   855.4    0.00 
 174    3:30   0.00   51.1    38    6.2   100     7.8   855.5    0.00 
 174    3:40   0.00   52.5    36    6.2    94     8.0   855.5    0.00 
 174    3:50   0.00   52.4    37    6.0    88     7.4   855.5    0.00 
 174    4:00   0.00   50.9    38    5.6    89     6.4   855.5    0.00 
 174    4:10   0.00   48.5    45    4.8   103     5.6   855.6    0.00 
 174    4:20   0.00   47.0    51    2.0   106     5.3   855.6    0.00 
 174    4:30   0.01   47.3    50    1.8   350     3.9   855.7    0.00 
 174    4:40   0.01   45.4    55    3.2     2     4.5   855.6    0.00 
 174    4:50   0.01   44.3    57    2.0    44     3.9   855.6    0.00 
 174    5:00   0.05   43.0    69    2.4   259     4.5   855.7    0.00 
 174    5:10   0.08   44.7    65    2.6   319     3.6   855.7    0.00 
 174    5:20   0.10   46.1    63    2.2    14     3.4   855.9    0.00 
 174    5:30   0.12   48.0    64    1.8   160     3.0   856.1    0.00 
 174    5:40   0.15   51.6    53    0.5   116     1.5   856.1    0.00 
 174    5:50   0.18   56.0    45    0.8    11     2.2   856.3    0.00 
 174    6:00   0.21   56.9    45    1.9   324     3.2   856.4    0.00 
 174    6:10   0.24   58.2    39    2.4   343     4.4   856.4    0.00 
 174    6:20   0.27   60.6    34    1.6    25     3.4   856.5    0.00 
 174    6:30   0.30   63.5    29    2.0    42     4.5   856.7    0.00 
 174    6:40   0.33   64.7    25    4.4    45     6.9   856.6    0.00 
 174    6:50   0.37   65.5    25    6.1    52     8.6   856.7    0.00 
 174    7:00   0.40   66.3    23    7.5    50    10.3   856.6    0.00 
 174    7:10   0.43   66.9    22    7.2    52    11.2   856.6    0.00 
 174    7:20   0.46   67.8    22    7.2    54    10.5   856.6    0.00 
 174    7:30   0.49   68.5    22    6.7    51     9.9   856.5    0.00 
 174    7:40   0.52   68.9    20    7.1    46     9.8   856.5    0.00 
 174    7:50   0.55   70.2    20    7.2    43    10.1   856.4    0.00 
 174    8:00   0.58   71.1    19    7.2    40    10.2   856.3    0.00 
 174    8:10   0.61   71.4    19    7.7    48    12.0   856.1    0.00 
 174    8:20   0.64   72.1    18    8.4    50    11.7   855.9    0.00 
 174    8:30   0.67   72.6    18    8.1    53    13.1   855.8    0.00 
 174    8:40   0.69   73.6    17    7.8    44    11.6   855.8    0.00 
 174    8:50   0.72   74.0    15    7.2    32    12.6   855.7    0.00 
 174    9:00   0.74   74.8    15    7.7    43    11.0   855.6    0.00 
 174    9:10   0.77   75.4    15    7.8    41    12.5   855.6    0.00 
 174    9:20   0.79   76.0    15    7.8    52    11.2   855.6    0.00 
 174    9:30   0.81   76.5    14    6.7    37    11.5   855.6    0.00 
 174    9:40   0.83   77.5    14    6.5    37    11.8   855.6    0.00 
 174    9:50   0.85   78.2    13    5.7    44     9.3   855.5    0.00 
 174   10:00   0.86   78.3    14    6.0    54    10.4   855.6    0.00 
 174   10:10   0.88   78.7    13    4.7    41    10.7   855.6    0.00 
 174   10:20   0.90   79.3    13    3.9    42    10.1   855.6    0.00 
 174   10:30   0.91   79.6    13    5.3    63     9.3   855.6    0.00 
 174   10:40   0.93   81.1    12    4.9    37     9.6   855.6    0.00 
 174   10:50   0.94   81.4    12    6.0    52    10.3   855.6    0.00 
 174   11:00   0.95   81.6    11    6.3    41    11.5   855.6    0.00 
 174   11:10   0.96   82.1    12    6.6    54    11.9   855.6    0.00 
 174   11:20   0.96   82.5    11    7.0    51    11.3   855.6    0.00 
 174   11:30   0.97   82.6    11    7.3    68    12.2   855.6    0.00 
 174   11:40   0.97   82.7    11    7.3    41    11.3   855.5    0.00 
 174   11:50   0.97   82.9    11    5.8    44    12.6   855.5    0.00 
 174   12:00   0.97   82.8    11    6.6    54    14.9   855.4    0.00 
 174   12:10   0.97   83.4    11    8.2    51    13.7   855.3    0.00 
 174   12:20   0.97   83.9    11    8.2    63    13.0   855.2    0.00 
 174   12:30   0.97   84.7    12    8.9    62    15.9   855.1    0.00 
 174   12:40   0.96   85.0    11    5.8    48    13.2   855.1    0.00 
 174   12:50   0.95   85.2    11    5.0    55    10.7   855.0    0.00 
 174   13:00   0.95   85.3    11    6.7    73    11.5   854.9    0.00 
 174   13:10   0.94   86.4    11    7.9    70    14.3   854.9    0.00 
 174   13:20   0.93   86.8    11    6.3    50    10.6   854.9    0.00 

Return to Antelope Valley graphs page.


Western Regional Climate Center,wrcc@dri.edu